Time;durP1;ratioP1;P1;durP2;ratioP2;P2;SDS_P1;SDS_P2;PMS_P1;PMS_P2;Temp;Humidity;BMP_temperature;BMP_pressure;BME280_temperature;BME280_humidity;BME280_pressure;Samples;Min_cycle;Max_cycle;Signal;HPM_P1;HPM_P2
2022/06/30 00:00:26;;;;;;;;;;;;;;;5.62;71.33;96286.94;6371761;27;19930;-67
2022/06/30 00:03:29;;;;;;;;;;;;;;;5.58;71.66;96288.88;6371868;27;19923;-67
2022/06/30 00:06:32;;;;;;;;;;;;;;;5.58;71.31;96291.47;6370765;27;19958;-67
2022/06/30 00:09:36;;;;;;;;;;;;;;;5.56;71.37;96288.09;6370995;27;20507;-68
2022/06/30 00:12:39;;;;;;;;;;;;;;;5.55;71.35;96289.03;6371206;27;19931;-68
2022/06/30 00:15:42;;;;;;;;;;;;;;;5.56;71.55;96289.88;6371477;27;19981;-68
2022/06/30 00:18:47;;;;;;;;;;;;;;;5.59;71.41;96289.72;6371486;27;20015;-68
2022/06/30 00:21:49;;;;;;;;;;;;;;;5.61;71.20;96290.47;6369868;27;19930;-68
2022/06/30 00:24:51;;;;;;;;;;;;;;;5.67;71.49;96282.31;6370488;27;19924;-67
2022/06/30 00:27:52;;;;;;;;;;;;;;;5.79;71.09;96286.84;6370560;27;20068;-67
2022/06/30 00:30:53;;;;;;;;;;;;;;;5.88;70.30;96295.09;6370348;28;19923;-68
2022/06/30 00:33:59;;;;;;;;;;;;;;;5.89;70.44;96302.00;6371035;27;19923;-68
2022/06/30 00:37:03;;;;;;;;;;;;;;;5.91;70.49;96290.53;6370663;28;19923;-67
2022/06/30 00:40:07;;;;;;;;;;;;;;;6.01;70.76;96290.91;6371677;28;19935;-67
2022/06/30 00:43:13;;;;;;;;;;;;;;;6.15;69.81;96296.22;6370709;28;19919;-68
2022/06/30 00:46:16;;;;;;;;;;;;;;;6.23;69.79;96286.16;6370582;28;19930;-68
2022/06/30 00:49:18;;;;;;;;;;;;;;;6.27;69.50;96290.28;6370051;28;19923;-68
2022/06/30 00:52:24;;;;;;;;;;;;;;;6.32;70.18;96304.88;6370320;28;19929;-69
2022/06/30 00:55:26;;;;;;;;;;;;;;;6.39;69.49;96295.72;6370177;28;19946;-68
2022/06/30 00:58:40;;;;;;;;;;;;;;;6.49;69.26;96291.66;6371124;28;19923;-68
2022/06/30 01:01:45;;;;;;;;;;;;;;;6.54;69.14;96294.88;6370474;28;19923;-68
2022/06/30 01:04:49;;;;;;;;;;;;;;;6.60;69.02;96294.50;6370319;28;20531;-68
2022/06/30 01:07:50;;;;;;;;;;;;;;;6.63;68.79;96299.53;6370854;28;19930;-68
2022/06/30 01:14:14;;;;;;;;;;;;;;;6.96;69.25;96296.72;6370630;28;19927;-67
2022/06/30 01:17:17;;;;;;;;;;;;;;;7.11;69.30;96289.72;6370156;28;20008;-67
2022/06/30 01:20:25;;;;;;;;;;;;;;;7.10;69.68;96287.19;6370072;28;19950;-67
2022/06/30 01:23:33;;;;;;;;;;;;;;;7.17;70.00;96284.13;6370219;28;19929;-67
2022/06/30 01:26:37;;;;;;;;;;;;;;;7.26;70.15;96287.13;6370838;28;19927;-68
2022/06/30 01:29:38;;;;;;;;;;;;;;;7.33;69.64;96288.41;6370037;28;19930;-68
2022/06/30 01:32:40;;;;;;;;;;;;;;;7.49;69.26;96289.16;6370016;28;19924;-68
2022/06/30 01:35:41;;;;;;;;;;;;;;;7.58;69.17;96285.94;6369796;28;20355;-67
2022/06/30 01:38:42;;;;;;;;;;;;;;;7.68;68.85;96283.63;6369715;28;20388;-67
2022/06/30 01:41:45;;;;;;;;;;;;;;;7.78;69.03;96283.88;6369791;28;19924;-67
2022/06/30 01:44:51;;;;;;;;;;;;;;;7.92;70.60;96280.38;6372718;27;20068;-68
2022/06/30 01:47:57;;;;;;;;;;;;;;;8.09;70.75;96291.44;6357254;27;19969;-68
2022/06/30 01:50:58;;;;;;;;;;;;;;;8.24;69.48;96286.19;6374558;27;19923;-67
2022/06/30 01:54:03;;;;;;;;;;;;;;;8.37;68.13;96280.97;6373668;27;20375;-67
2022/06/30 01:57:04;;;;;;;;;;;;;;;8.50;68.00;96280.09;6373728;27;19960;-67
2022/06/30 02:00:07;;;;;;;;;;;;;;;8.65;67.75;96282.66;6374672;27;20318;-68
2022/06/30 02:03:09;;;;;;;;;;;;;;;8.83;68.29;96289.31;6374629;27;20361;-67
2022/06/30 02:06:13;;;;;;;;;;;;;;;8.94;67.98;96289.38;6374372;27;19937;-68
2022/06/30 02:09:14;;;;;;;;;;;;;;;8.99;68.05;96284.66;6374432;27;19924;-68
2022/06/30 02:15:38;;;;;;;;;;;;;;;9.26;68.18;96289.00;6373130;27;19924;-68
2022/06/30 02:18:41;;;;;;;;;;;;;;;9.25;68.25;96289.94;6373667;27;20358;-67
2022/06/30 02:21:44;;;;;;;;;;;;;;;9.33;67.85;96282.34;6374344;27;19923;-67
2022/06/30 02:24:48;;;;;;;;;;;;;;;9.46;67.98;96278.91;6373988;27;19923;-68
2022/06/30 02:27:51;;;;;;;;;;;;;;;9.73;68.08;96279.56;6373219;27;20297;-68
2022/06/30 02:30:54;;;;;;;;;;;;;;;9.79;67.79;96273.03;6373696;27;19924;-67
2022/06/30 02:33:55;;;;;;;;;;;;;;;9.85;67.65;96276.09;6372831;27;19923;-67
2022/06/30 02:36:56;;;;;;;;;;;;;;;9.90;67.43;96273.94;6373424;27;19924;-68
2022/06/30 02:40:01;;;;;;;;;;;;;;;9.95;67.22;96278.88;6373726;27;19923;-68
2022/06/30 02:43:06;;;;;;;;;;;;;;;10.03;67.12;96275.72;6373757;27;19923;-67
2022/06/30 02:46:09;;;;;;;;;;;;;;;10.14;66.78;96278.41;6372675;27;20311;-67
2022/06/30 02:49:11;;;;;;;;;;;;;;;10.21;66.44;96282.25;6373486;27;19930;-68
2022/06/30 02:52:16;;;;;;;;;;;;;;;10.43;66.20;96271.03;6373443;27;20025;-67
2022/06/30 02:55:21;;;;;;;;;;;;;;;10.49;65.77;96269.75;6372949;27;19923;-67
2022/06/30 02:58:24;;;;;;;;;;;;;;;10.54;65.59;96267.63;6373158;27;19924;-67
2022/06/30 03:01:28;;;;;;;;;;;;;;;10.68;65.06;96262.16;6373256;27;19923;-69
2022/06/30 03:04:33;;;;;;;;;;;;;;;10.85;64.62;96254.78;6373026;27;20428;-68
2022/06/30 03:07:35;;;;;;;;;;;;;;;10.96;64.24;96254.81;6372173;27;20072;-67
2022/06/30 03:10:40;;;;;;;;;;;;;;;11.05;64.06;96269.91;6373014;27;19927;-68
2022/06/30 03:13:46;;;;;;;;;;;;;;;11.19;63.35;96261.78;6372846;27;19927;-68
2022/06/30 03:16:50;;;;;;;;;;;;;;;11.32;62.75;96255.56;6372529;27;19923;-67
2022/06/30 03:19:53;;;;;;;;;;;;;;;11.37;62.73;96258.69;6372694;27;19927;-67
2022/06/30 03:22:57;;;;;;;;;;;;;;;11.43;62.44;96260.81;6372824;27;19984;-67
2022/06/30 03:25:58;;;;;;;;;;;;;;;11.81;60.21;96262.25;6371673;27;20440;-68
2022/06/30 03:28:59;;;;;;;;;;;;;;;12.00;58.78;96262.50;6371395;27;19931;-67
2022/06/30 03:32:00;;;;;;;;;;;;;;;12.11;58.02;96264.25;6371737;27;19927;-68
2022/06/30 03:35:01;;;;;;;;;;;;;;;12.09;58.18;96261.75;6371327;27;19962;-67
2022/06/30 03:38:08;;;;;;;;;;;;;;;12.19;58.08;96263.63;6372321;27;19923;-67
2022/06/30 03:41:09;;;;;;;;;;;;;;;12.26;57.89;96267.47;6372184;27;19991;-68
2022/06/30 03:44:13;;;;;;;;;;;;;;;12.22;58.06;96272.13;6372266;27;20346;-67
2022/06/30 03:47:14;;;;;;;;;;;;;;;12.24;58.61;96274.66;6353710;27;19931;-68
2022/06/30 03:50:20;;;;;;;;;;;;;;;12.63;58.07;96264.44;6371952;27;19927;-68
2022/06/30 03:53:24;;;;;;;;;;;;;;;12.63;57.84;96269.72;6372060;27;19930;-68
2022/06/30 03:56:25;;;;;;;;;;;;;;;12.74;57.80;96264.41;6370950;27;19919;-67
2022/06/30 03:59:27;;;;;;;;;;;;;;;12.78;57.52;96265.81;6370861;27;19930;-67
2022/06/30 04:02:31;;;;;;;;;;;;;;;12.75;57.83;96258.16;6370590;27;20404;-68
2022/06/30 04:05:34;;;;;;;;;;;;;;;12.81;57.63;96260.25;6371096;27;19923;-67
2022/06/30 04:08:38;;;;;;;;;;;;;;;12.94;57.47;96263.56;6370947;27;20434;-67
2022/06/30 04:11:41;;;;;;;;;;;;;;;13.06;57.17;96261.69;6371618;27;19931;-68
2022/06/30 04:14:44;;;;;;;;;;;;;;;13.21;56.64;96251.63;6371524;27;20304;-67
2022/06/30 04:17:45;;;;;;;;;;;;;;;13.33;56.39;96257.69;6371552;27;19931;-67
2022/06/30 04:20:49;;;;;;;;;;;;;;;13.45;56.27;96256.66;6352638;27;19942;-68
2022/06/30 04:23:52;;;;;;;;;;;;;;;13.60;55.70;96259.75;6353374;27;19923;-66
2022/06/30 04:26:56;;;;;;;;;;;;;;;13.74;55.11;96245.34;6371391;27;20447;-67
2022/06/30 04:29:59;;;;;;;;;;;;;;;13.86;54.94;96255.66;6371294;27;19923;-68
2022/06/30 04:33:03;;;;;;;;;;;;;;;13.98;54.57;96258.19;6371282;28;19924;-67
2022/06/30 04:36:07;;;;;;;;;;;;;;;14.11;54.25;96258.81;6371010;28;19919;-67
2022/06/30 04:39:08;;;;;;;;;;;;;;;14.26;53.72;96252.13;6370493;28;19942;-67
2022/06/30 04:42:09;;;;;;;;;;;;;;;14.47;52.84;96256.50;6369995;28;20384;-68
2022/06/30 04:45:10;;;;;;;;;;;;;;;14.70;52.14;96243.84;6370092;28;19933;-67
2022/06/30 04:48:13;;;;;;;;;;;;;;;15.20;51.63;96233.00;6370381;28;19968;-67
2022/06/30 04:51:15;;;;;;;;;;;;;;;17.69;46.32;96249.22;6370079;28;20384;-67
2022/06/30 04:54:16;;;;;;;;;;;;;;;20.83;40.75;96254.84;6352450;28;20499;-68
2022/06/30 04:57:19;;;;;;;;;;;;;;;23.85;35.08;96243.00;6370185;28;19923;-66
2022/06/30 05:00:20;;;;;;;;;;;;;;;26.70;32.56;96245.03;6369857;28;20285;-68
2022/06/30 05:03:24;;;;;;;;;;;;;;;29.64;29.73;96254.28;6371047;28;20392;-67
2022/06/30 05:06:29;;;;;;;;;;;;;;;30.69;29.31;96249.78;6370050;28;19923;-67
2022/06/30 05:09:32;;;;;;;;;;;;;;;33.76;27.02;96249.41;6370615;28;20018;-67
2022/06/30 05:12:34;;;;;;;;;;;;;;;36.99;23.14;96254.13;6370643;28;20023;-67
2022/06/30 05:15:39;;;;;;;;;;;;;;;37.22;19.86;96235.38;6370798;28;20011;-68
2022/06/30 05:18:40;;;;;;;;;;;;;;;33.68;22.57;96228.06;6372227;27;19923;-68
2022/06/30 05:21:46;;;;;;;;;;;;;;;30.98;26.72;96227.03;6375389;27;19978;-68
2022/06/30 05:28:10;;;;;;;;;;;;;;;37.06;16.78;96227.25;6375578;27;19930;-67
2022/06/30 05:31:14;;;;;;;;;;;;;;;36.37;17.46;96214.41;6375333;27;19923;-67
2022/06/30 05:34:20;;;;;;;;;;;;;;;33.02;19.51;96214.69;6375432;27;19923;-67
2022/06/30 05:37:21;;;;;;;;;;;;;;;29.52;22.40;96203.56;6374536;27;19949;-67
2022/06/30 05:40:24;;;;;;;;;;;;;;;31.36;19.94;96203.75;6374273;27;19968;-67
2022/06/30 05:43:30;;;;;;;;;;;;;;;35.36;17.18;96210.69;6375017;27;19928;-67
2022/06/30 05:46:36;;;;;;;;;;;;;;;36.52;16.39;96217.09;6375314;27;19924;-67
2022/06/30 05:49:42;;;;;;;;;;;;;;;35.36;16.73;96217.03;6374816;27;19927;-68
2022/06/30 05:52:45;;;;;;;;;;;;;;;36.53;15.22;96215.19;6374920;27;20002;-68
2022/06/30 05:55:49;;;;;;;;;;;;;;;38.09;14.47;96216.25;6374708;27;19977;-67
2022/06/30 05:58:52;;;;;;;;;;;;;;;39.94;12.81;96219.97;6373805;27;19931;-67
2022/06/30 06:01:55;;;;;;;;;;;;;;;40.27;11.90;96230.97;6374843;27;19923;-67
2022/06/30 06:04:59;;;;;;;;;;;;;;;38.28;13.71;96212.75;6374131;27;19923;-67
2022/06/30 06:08:07;;;;;;;;;;;;;;;34.38;15.60;96191.34;6373382;27;19930;-67
2022/06/30 06:11:17;;;;;;;;;;;;;;;32.45;17.30;96180.53;6374263;27;20401;-67
2022/06/30 06:14:21;;;;;;;;;;;;;;;30.33;19.30;96198.34;6374217;27;19923;-68
2022/06/30 06:17:25;;;;;;;;;;;;;;;28.12;20.63;96182.31;6374231;27;20426;-67
2022/06/30 06:20:26;;;;;;;;;;;;;;;26.26;23.10;96179.22;6372649;27;19923;-67
2022/06/30 06:23:31;;;;;;;;;;;;;;;29.52;19.99;96178.34;6356389;27;19923;-67
2022/06/30 06:26:35;;;;;;;;;;;;;;;35.21;16.31;96193.19;6372922;27;19924;-67
2022/06/30 06:29:38;;;;;;;;;;;;;;;38.03;13.21;96194.63;6373355;27;19923;-67
2022/06/30 06:32:42;;;;;;;;;;;;;;;37.67;13.43;96189.47;6374102;27;19927;-67
2022/06/30 06:35:43;;;;;;;;;;;;;;;38.97;12.22;96192.06;6372811;27;19923;-67
2022/06/30 06:38:46;;;;;;;;;;;;;;;39.73;11.67;96191.97;6355274;27;19927;-67
2022/06/30 06:41:52;;;;;;;;;;;;;;;41.31;11.04;96196.19;6373465;27;19923;-67
2022/06/30 06:44:58;;;;;;;;;;;;;;;42.77;10.25;96197.25;6373580;27;20021;-67
2022/06/30 06:48:00;;;;;;;;;;;;;;;43.65;9.45;96193.34;6372674;27;20308;-67
2022/06/30 06:51:05;;;;;;;;;;;;;;;44.19;9.36;96195.63;6373433;27;19924;-67
2022/06/30 06:54:12;;;;;;;;;;;;;;;43.69;9.87;96202.66;6373487;27;19923;-66
2022/06/30 06:57:17;;;;;;;;;;;;;;;39.60;11.43;96188.03;6373084;27;19961;-67
2022/06/30 07:00:21;;;;;;;;;;;;;;;34.91;14.13;96179.50;6373084;27;20026;-67
2022/06/30 07:03:25;;;;;;;;;;;;;;;31.03;17.28;96169.25;6354604;27;20011;-67
2022/06/30 07:06:27;;;;;;;;;;;;;;;28.59;19.60;96156.31;6372864;27;19924;-67
2022/06/30 07:09:30;;;;;;;;;;;;;;;27.28;20.82;96161.13;6373119;27;20410;-68
2022/06/30 07:12:32;;;;;;;;;;;;;;;26.98;20.96;96155.53;6372995;27;19930;-67
2022/06/30 07:15:36;;;;;;;;;;;;;;;26.10;21.46;96147.34;6371584;27;20277;-66
2022/06/30 07:18:40;;;;;;;;;;;;;;;29.57;18.54;96153.25;6372269;27;20006;-67
2022/06/30 07:21:43;;;;;;;;;;;;;;;35.22;14.24;96156.56;6372008;27;20327;-67
2022/06/30 07:24:44;;;;;;;;;;;;;;;37.26;12.44;96170.63;6371909;27;20006;-68
2022/06/30 07:27:45;;;;;;;;;;;;;;;34.56;13.90;96165.47;6372645;27;19929;-68
2022/06/30 07:30:48;;;;;;;;;;;;;;;34.79;13.76;96169.66;6372031;27;19946;-67
2022/06/30 07:33:52;;;;;;;;;;;;;;;36.62;11.68;96173.19;6372309;27;19924;-67
2022/06/30 07:36:53;;;;;;;;;;;;;;;34.52;13.31;96163.53;6371655;27;19923;-68
2022/06/30 07:39:54;;;;;;;;;;;;;;;34.85;13.26;96168.56;6371216;27;20018;-67
2022/06/30 07:42:57;;;;;;;;;;;;;;;38.10;11.45;96164.88;6371112;27;19923;-67
2022/06/30 07:45:59;;;;;;;;;;;;;;;41.58;9.95;96164.06;6371290;27;19927;-67
2022/06/30 07:49:02;;;;;;;;;;;;;;;39.43;10.66;96177.59;6372248;27;20000;-68
2022/06/30 07:52:04;;;;;;;;;;;;;;;34.89;12.73;96152.44;6372041;27;19919;-66
2022/06/30 07:55:05;;;;;;;;;;;;;;;31.12;14.92;96148.72;6371710;27;19923;-67
2022/06/30 07:58:11;;;;;;;;;;;;;;;28.47;17.56;96135.66;6371855;27;19927;-67
2022/06/30 08:01:12;;;;;;;;;;;;;;;27.35;18.29;96134.06;6370282;27;19930;-68
2022/06/30 08:04:17;;;;;;;;;;;;;;;30.28;16.32;96146.66;6371623;27;19923;-66
2022/06/30 08:07:20;;;;;;;;;;;;;;;34.94;13.30;96154.34;6371644;27;20375;-68
2022/06/30 08:10:24;;;;;;;;;;;;;;;37.04;11.84;96158.16;6371244;27;19923;-67
2022/06/30 08:13:26;;;;;;;;;;;;;;;37.50;11.44;96155.03;6370460;27;20027;-68
2022/06/30 08:16:29;;;;;;;;;;;;;;;39.95;10.21;96166.53;6370299;27;19923;-67
2022/06/30 08:19:33;;;;;;;;;;;;;;;41.61;9.63;96174.47;6352628;27;19923;-67
2022/06/30 08:22:34;;;;;;;;;;;;;;;40.47;10.02;96167.13;6371488;27;19972;-66
2022/06/30 08:25:39;;;;;;;;;;;;;;;42.26;9.41;96173.81;6371400;27;19923;-66
2022/06/30 08:28:40;;;;;;;;;;;;;;;43.01;8.89;96173.84;6370556;27;19923;-67
2022/06/30 08:31:43;;;;;;;;;;;;;;;41.37;9.62;96172.84;6371231;27;19924;-68
2022/06/30 08:34:46;;;;;;;;;;;;;;;36.77;11.47;96164.06;6369984;28;19927;-67
2022/06/30 08:37:53;;;;;;;;;;;;;;;32.83;14.02;96143.34;6370971;28;20311;-68
2022/06/30 08:44:14;;;;;;;;;;;;;;;27.90;17.83;96130.56;6370976;28;20296;-68
2022/06/30 08:47:17;;;;;;;;;;;;;;;29.21;17.26;96130.75;6370578;28;19923;-67
2022/06/30 08:50:20;;;;;;;;;;;;;;;33.24;14.13;96143.72;6370642;28;20391;-67
2022/06/30 08:53:25;;;;;;;;;;;;;;;35.50;12.79;96149.72;6372669;27;19957;-67
2022/06/30 08:56:30;;;;;;;;;;;;;;;35.71;12.50;96142.31;6375013;27;20049;-67
2022/06/30 08:59:36;;;;;;;;;;;;;;;33.38;14.04;96150.38;6375898;27;20396;-67
2022/06/30 09:02:37;;;;;;;;;;;;;;;30.98;15.77;96136.53;6375023;27;19923;-67
2022/06/30 09:05:44;;;;;;;;;;;;;;;28.98;17.11;96121.53;6375685;27;19928;-67
2022/06/30 09:08:45;;;;;;;;;;;;;;;27.61;18.09;96126.72;6375845;27;19927;-67
2022/06/30 09:11:51;;;;;;;;;;;;;;;27.21;18.85;96117.16;6375704;27;19924;-67
2022/06/30 09:14:55;;;;;;;;;;;;;;;27.24;18.59;96123.97;6375133;27;19924;-68
2022/06/30 09:17:58;;;;;;;;;;;;;;;27.15;18.87;96117.16;6375518;27;19931;-68
2022/06/30 09:20:59;;;;;;;;;;;;;;;26.94;19.43;96110.31;6374739;27;19946;-67
2022/06/30 09:24:03;;;;;;;;;;;;;;;26.74;19.54;96108.59;6375440;27;20368;-68
2022/06/30 09:27:09;;;;;;;;;;;;;;;26.56;19.75;96103.13;6374856;27;20401;-67
2022/06/30 09:30:11;;;;;;;;;;;;;;;26.57;19.58;96107.47;6356102;27;20421;-67
2022/06/30 09:33:12;;;;;;;;;;;;;;;26.55;20.11;96107.72;6355620;27;20008;-67
2022/06/30 09:36:20;;;;;;;;;;;;;;;27.94;18.74;96110.13;6374816;27;20415;-68
2022/06/30 09:39:22;;;;;;;;;;;;;;;30.09;16.58;96115.31;6375070;27;19923;-69
2022/06/30 09:42:52;;;;;;;;;;;;;;;32.90;15.09;96116.72;6374726;27;20300;-67
2022/06/30 09:45:57;;;;;;;;;;;;;;;36.78;12.14;96123.78;6373297;27;20009;-68
2022/06/30 09:49:01;;;;;;;;;;;;;;;39.22;10.88;96148.78;6374297;27;19934;-67
2022/06/30 09:52:13;;;;;;;;;;;;;;;39.99;10.07;96133.66;6378840;27;19923;-66
2022/06/30 09:55:19;;;;;;;;;;;;;;;40.90;10.09;96130.88;6376585;27;20014;-67
2022/06/30 09:58:29;;;;;;;;;;;;;;;41.88;9.55;96141.13;6376682;27;19923;-68
2022/06/30 10:01:49;;;;;;;;;;;;;;;41.99;9.35;96143.66;6374567;27;19946;-66
2022/06/30 10:04:56;;;;;;;;;;;;;;;41.52;9.06;96129.41;6373577;27;19930;-66
2022/06/30 10:08:02;;;;;;;;;;;;;;;40.70;9.27;96125.84;6374499;27;19923;-67
2022/06/30 10:11:06;;;;;;;;;;;;;;;40.20;10.33;96128.56;6374374;27;19924;-67
2022/06/30 10:14:13;;;;;;;;;;;;;;;39.99;10.36;96134.47;6373981;27;20313;-67
2022/06/30 10:17:23;;;;;;;;;;;;;;;39.60;10.60;96140.44;6374427;27;19976;-66
2022/06/30 10:20:28;;;;;;;;;;;;;;;37.86;11.40;96129.97;6374624;27;19924;-68
2022/06/30 10:23:29;;;;;;;;;;;;;;;34.82;13.57;96128.09;6374910;27;19997;-67
2022/06/30 10:29:56;;;;;;;;;;;;;;;30.29;17.01;96110.34;6374172;27;20019;-68
2022/06/30 10:33:04;;;;;;;;;;;;;;;29.76;17.22;96114.94;6374617;27;19923;-68
2022/06/30 10:36:21;;;;;;;;;;;;;;;29.40;17.34;96105.19;6376750;27;19935;-68
2022/06/30 10:39:30;;;;;;;;;;;;;;;28.42;18.02;96103.88;6373587;27;19923;-67
2022/06/30 10:42:42;;;;;;;;;;;;;;;27.41;18.76;96099.91;6372466;27;19924;-68
2022/06/30 10:45:58;;;;;;;;;;;;;;;26.78;19.47;96093.63;6371979;27;19923;-67
2022/06/30 10:49:06;;;;;;;;;;;;;;;26.46;19.30;96097.34;6373869;27;19950;-68
2022/06/30 10:52:20;;;;;;;;;;;;;;;26.13;19.66;96098.41;6374024;27;19923;-67
2022/06/30 10:55:23;;;;;;;;;;;;;;;26.14;19.91;96095.47;6375620;27;20088;-68
2022/06/30 10:58:25;;;;;;;;;;;;;;;26.02;19.84;96096.41;6375132;27;20303;-67
2022/06/30 11:01:28;;;;;;;;;;;;;;;25.95;20.05;96096.41;6373073;27;19923;-68
2022/06/30 11:04:29;;;;;;;;;;;;;;;25.97;19.81;96097.03;6372790;27;19930;-68
2022/06/30 11:07:32;;;;;;;;;;;;;;;26.21;19.63;96095.44;6375471;27;19923;-68
2022/06/30 11:10:36;;;;;;;;;;;;;;;26.57;19.60;96089.41;6373411;27;20035;-68
2022/06/30 11:13:40;;;;;;;;;;;;;;;27.13;18.97;96092.28;6373285;27;20392;-69
2022/06/30 11:16:46;;;;;;;;;;;;;;;27.89;18.46;96091.88;6372464;27;19923;-68
2022/06/30 11:19:48;;;;;;;;;;;;;;;28.87;17.71;96087.13;6373914;27;19930;-68
2022/06/30 11:22:52;;;;;;;;;;;;;;;29.92;17.02;96099.84;6372401;27;20388;-69
2022/06/30 11:29:29;;;;;;;;;;;;;;;30.96;16.23;96101.47;6335060;27;19923;-67
2022/06/30 11:32:33;;;;;;;;;;;;;;;30.95;16.32;96093.56;6371100;27;19946;-67
2022/06/30 11:36:01;;;;;;;;;;;;;;;31.83;16.03;96085.59;6371583;27;19938;-67
2022/06/30 11:39:08;;;;;;;;;;;;;;;32.25;14.87;96104.06;6372143;27;19923;-67
2022/06/30 11:42:12;;;;;;;;;;;;;;;32.42;15.50;96100.16;6371970;27;19953;-67
2022/06/30 11:45:17;;;;;;;;;;;;;;;32.67;15.11;96089.78;6370834;27;19927;-67
2022/06/30 11:48:18;;;;;;;;;;;;;;;32.74;15.32;96101.31;6371365;27;19919;-67
2022/06/30 11:51:25;;;;;;;;;;;;;;;32.78;15.40;96094.25;6371874;27;19923;-67
2022/06/30 11:54:30;;;;;;;;;;;;;;;32.81;15.32;96100.03;6371660;27;19923;-67
2022/06/30 11:57:38;;;;;;;;;;;;;;;32.41;15.35;96098.53;6370622;27;19920;-68
2022/06/30 12:00:41;;;;;;;;;;;;;;;31.74;15.83;96099.63;6370926;27;19930;-66
2022/06/30 12:03:47;;;;;;;;;;;;;;;30.94;15.95;96086.47;6370605;27;19923;-67
2022/06/30 12:06:52;;;;;;;;;;;;;;;30.35;16.51;96087.66;6371196;27;19946;-68
2022/06/30 12:10:00;;;;;;;;;;;;;;;29.87;16.97;96079.91;6370588;27;20304;-68
2022/06/30 12:13:03;;;;;;;;;;;;;;;29.69;16.93;96080.91;6370707;27;19929;-67
2022/06/30 12:16:04;;;;;;;;;;;;;;;29.53;16.84;96085.97;6370534;27;19924;-68
2022/06/30 12:19:05;;;;;;;;;;;;;;;29.60;16.78;96079.59;6370439;27;19924;-67
2022/06/30 12:22:07;;;;;;;;;;;;;;;29.32;17.23;96087.41;6352323;27;20304;-67
2022/06/30 12:25:09;;;;;;;;;;;;;;;29.10;17.47;96080.94;6370587;27;19924;-67
2022/06/30 12:28:10;;;;;;;;;;;;;;;29.20;17.28;96089.31;6369395;27;19919;-67
2022/06/30 12:31:21;;;;;;;;;;;;;;;28.77;17.66;96076.06;6369284;27;19928;-67
2022/06/30 12:34:23;;;;;;;;;;;;;;;28.46;17.72;96080.72;6370210;27;20014;-68
2022/06/30 12:37:29;;;;;;;;;;;;;;;27.17;18.67;96082.69;6371494;28;19920;-68
2022/06/30 12:40:36;;;;;;;;;;;;;;;25.97;19.38;96079.00;6370081;28;19924;-68
2022/06/30 12:43:51;;;;;;;;;;;;;;;25.21;20.03;96084.22;6370614;28;20384;-68
2022/06/30 12:47:01;;;;;;;;;;;;;;;24.89;20.32;96084.03;6370413;28;20292;-67
2022/06/30 12:50:19;;;;;;;;;;;;;;;25.03;20.33;96082.16;6370188;28;19924;-69
2022/06/30 12:53:22;;;;;;;;;;;;;;;25.34;19.85;96078.00;6371268;28;19931;-68
2022/06/30 12:56:24;;;;;;;;;;;;;;;25.29;20.43;96081.31;6371130;28;19938;-67
2022/06/30 12:59:27;;;;;;;;;;;;;;;25.35;19.95;96085.03;6370204;28;19931;-68
2022/06/30 13:02:35;;;;;;;;;;;;;;;24.75;20.63;96085.09;6370806;28;20439;-68
2022/06/30 13:05:40;;;;;;;;;;;;;;;24.30;20.85;96082.94;6370675;28;20126;-68
2022/06/30 13:08:46;;;;;;;;;;;;;;;24.11;21.13;96073.81;6368960;28;20411;-69
2022/06/30 13:11:51;;;;;;;;;;;;;;;23.84;21.29;96072.94;6369306;28;19924;-68
2022/06/30 13:14:54;;;;;;;;;;;;;;;24.14;21.30;96077.97;6370251;28;20014;-69
2022/06/30 13:17:57;;;;;;;;;;;;;;;23.86;21.79;96080.78;6370207;28;19923;-68
2022/06/30 13:20:59;;;;;;;;;;;;;;;23.95;22.36;96079.59;6350913;28;19930;-67
2022/06/30 13:24:03;;;;;;;;;;;;;;;24.31;22.29;96091.84;6369611;28;19923;-67
2022/06/30 13:27:12;;;;;;;;;;;;;;;24.82;21.75;96085.88;6369905;28;20399;-68
2022/06/30 13:30:16;;;;;;;;;;;;;;;24.62;21.99;96075.13;6370515;28;19984;-68
2022/06/30 13:33:17;;;;;;;;;;;;;;;24.63;22.28;96088.41;6370134;28;20405;-67
2022/06/30 13:36:18;;;;;;;;;;;;;;;24.49;22.32;96084.03;6370401;28;20018;-69
2022/06/30 13:39:23;;;;;;;;;;;;;;;24.35;22.34;96091.25;6372968;27;19923;-69
2022/06/30 13:42:24;;;;;;;;;;;;;;;24.37;22.52;96082.94;6373499;27;20017;-68
2022/06/30 13:45:30;;;;;;;;;;;;;;;24.29;22.69;96097.44;6374207;27;19923;-68
2022/06/30 13:48:36;;;;;;;;;;;;;;;24.30;22.69;96095.56;6374512;27;19923;-68
2022/06/30 13:51:40;;;;;;;;;;;;;;;24.24;22.56;96089.16;6374787;27;20393;-69
2022/06/30 13:54:46;;;;;;;;;;;;;;;24.31;22.79;96091.84;6374709;27;19923;-67
2022/06/30 13:57:47;;;;;;;;;;;;;;;24.13;22.93;96098.63;6374627;27;19923;-68
2022/06/30 14:00:48;;;;;;;;;;;;;;;23.97;23.67;96101.69;6373676;27;19923;-69
2022/06/30 14:03:54;;;;;;;;;;;;;;;23.74;24.48;96105.53;6375546;27;19923;-68
2022/06/30 14:06:57;;;;;;;;;;;;;;;23.68;24.95;96106.31;6374798;27;19954;-68
2022/06/30 14:09:59;;;;;;;;;;;;;;;23.46;25.39;96107.44;6372762;27;20063;-67
2022/06/30 14:13:02;;;;;;;;;;;;;;;22.98;25.85;96102.00;6374088;27;19919;-67
2022/06/30 14:16:09;;;;;;;;;;;;;;;22.72;26.59;96106.09;6373711;27;19924;-67
2022/06/30 14:19:18;;;;;;;;;;;;;;;22.54;26.32;96103.09;6340579;27;19927;-68
2022/06/30 14:22:23;;;;;;;;;;;;;;;22.55;26.71;96107.41;6373522;27;19923;-67
2022/06/30 14:25:25;;;;;;;;;;;;;;;22.49;26.90;96111.69;6373775;27;20381;-69
2022/06/30 14:28:29;;;;;;;;;;;;;;;22.39;27.19;96109.34;6372839;27;19930;-68
2022/06/30 14:31:32;;;;;;;;;;;;;;;22.41;27.05;96114.50;6374217;27;19923;-69
2022/06/30 14:34:37;;;;;;;;;;;;;;;22.35;27.27;96116.09;6374395;27;19947;-69
2022/06/30 14:37:41;;;;;;;;;;;;;;;22.08;27.43;96114.13;6373783;27;19926;-69
2022/06/30 14:40:45;;;;;;;;;;;;;;;21.56;28.08;96117.84;6355418;27;19923;-68
2022/06/30 14:43:46;;;;;;;;;;;;;;;21.06;28.64;96120.22;6371663;27;19923;-67
2022/06/30 14:46:49;;;;;;;;;;;;;;;20.69;29.13;96113.06;6372787;27;19923;-68
2022/06/30 14:49:53;;;;;;;;;;;;;;;20.41;30.05;96117.13;6373034;27;19923;-67
2022/06/30 14:52:56;;;;;;;;;;;;;;;20.21;30.69;96120.44;6373187;27;20289;-68
2022/06/30 14:55:57;;;;;;;;;;;;;;;20.04;30.86;96125.06;6373312;27;19923;-68
2022/06/30 14:58:58;;;;;;;;;;;;;;;19.83;31.16;96118.50;6371922;27;19923;-68
2022/06/30 15:02:02;;;;;;;;;;;;;;;19.68;31.83;96121.09;6371915;27;19924;-68
2022/06/30 15:05:04;;;;;;;;;;;;;;;19.45;32.32;96120.19;6372958;27;19930;-68
2022/06/30 15:08:10;;;;;;;;;;;;;;;19.22;32.33;96128.94;6372667;27;19923;-68
2022/06/30 15:11:18;;;;;;;;;;;;;;;19.05;32.80;96124.63;6372420;27;19923;-68
2022/06/30 15:14:21;;;;;;;;;;;;;;;18.95;33.13;96129.31;6373488;27;19927;-68
2022/06/30 15:17:28;;;;;;;;;;;;;;;18.72;33.54;96132.66;6372532;27;20022;-68
2022/06/30 15:20:32;;;;;;;;;;;;;;;18.51;33.82;96127.84;6372322;27;20381;-68
2022/06/30 15:26:52;;;;;;;;;;;;;;;18.21;33.74;96139.97;6352939;27;19955;-70
2022/06/30 15:29:53;;;;;;;;;;;;;;;18.11;34.25;96141.94;6371027;27;19930;-69
2022/06/30 15:32:57;;;;;;;;;;;;;;;18.00;34.43;96144.91;6372235;27;19924;-68
2022/06/30 15:36:00;;;;;;;;;;;;;;;17.93;34.76;96150.91;6371770;27;19930;-69
2022/06/30 15:39:03;;;;;;;;;;;;;;;17.82;34.97;96153.88;6371075;27;19984;-67
2022/06/30 15:42:08;;;;;;;;;;;;;;;17.70;35.13;96149.81;6371659;27;20408;-68
2022/06/30 15:45:12;;;;;;;;;;;;;;;17.60;35.14;96151.75;6371947;27;19923;-68
2022/06/30 15:48:13;;;;;;;;;;;;;;;17.49;35.24;96153.75;6371294;27;19926;-68
2022/06/30 15:51:14;;;;;;;;;;;;;;;17.41;35.50;96158.16;6371343;27;19923;-68
2022/06/30 15:54:18;;;;;;;;;;;;;;;17.33;35.67;96158.97;6371607;27;19927;-68
2022/06/30 15:57:22;;;;;;;;;;;;;;;17.25;35.77;96166.91;6371407;27;19919;-67
2022/06/30 16:00:26;;;;;;;;;;;;;;;17.17;35.88;96170.34;6371413;27;19995;-68
2022/06/30 16:03:27;;;;;;;;;;;;;;;17.12;35.98;96161.19;6369396;27;19945;-68
2022/06/30 16:06:30;;;;;;;;;;;;;;;17.05;36.41;96169.78;6370996;27;19923;-68
2022/06/30 16:09:34;;;;;;;;;;;;;;;16.93;36.49;96168.38;6371372;27;19924;-67
2022/06/30 16:13:00;;;;;;;;;;;;;;;16.84;36.65;96174.59;6371213;27;19923;-68
2022/06/30 16:16:04;;;;;;;;;;;;;;;16.80;36.99;96167.94;6371193;27;20311;-68
2022/06/30 16:19:06;;;;;;;;;;;;;;;16.74;37.09;96179.19;6352368;27;19923;-69
2022/06/30 16:22:11;;;;;;;;;;;;;;;16.66;37.35;96173.78;6371227;27;20300;-68